createdAt,value
2017-11-26T00:02:07.941Z,83.57
2017-11-26T00:04:35.475Z,83.52
2017-11-26T00:07:03.101Z,83.32
2017-11-26T00:09:30.699Z,83.41
2017-11-26T00:11:58.219Z,83.44
2017-11-26T00:14:30.939Z,83.47
2017-11-26T00:16:58.423Z,83.22
2017-11-26T00:19:25.871Z,83.10
2017-11-26T00:21:53.335Z,83.33
2017-11-26T00:24:20.806Z,83.34
2017-11-26T00:26:48.293Z,83.48
2017-11-26T00:29:15.833Z,83.42
2017-11-26T00:31:43.340Z,83.28
2017-11-26T00:34:10.896Z,83.37
2017-11-26T00:36:38.392Z,83.23
2017-11-26T00:39:05.982Z,83.18
2017-11-26T00:41:33.528Z,83.43
2017-11-26T00:44:01.033Z,83.46
2017-11-26T00:46:28.576Z,83.07
2017-11-26T00:48:56.180Z,83.20
2017-11-26T00:51:23.827Z,83.16
2017-11-26T00:53:51.332Z,83.02
2017-11-26T00:56:36.561Z,82.89
2017-11-26T00:59:04.175Z,82.83
2017-11-26T01:01:31.720Z,82.59
2017-11-26T01:03:59.228Z,82.87
2017-11-26T01:06:26.825Z,82.82
2017-11-26T01:08:54.455Z,82.91
2017-11-26T01:11:21.955Z,82.78
2017-11-26T01:13:57.411Z,82.88
2017-11-26T01:16:25.016Z,82.69
2017-11-26T01:18:52.538Z,82.80
2017-11-26T01:21:20.038Z,82.79
2017-11-26T01:23:47.494Z,83.17
2017-11-26T01:26:14.967Z,83.26
2017-11-26T01:28:42.489Z,82.95
2017-11-26T01:31:10.002Z,82.86
2017-11-26T01:33:37.625Z,82.98
2017-11-26T01:36:05.128Z,83.08
2017-11-26T01:38:32.623Z,83.16
2017-11-26T01:41:00.419Z,82.93
2017-11-26T01:43:27.914Z,82.83
2017-11-26T01:45:55.363Z,82.68
2017-11-26T01:48:23.079Z,82.56
2017-11-26T01:50:52.009Z,82.45
2017-11-26T01:53:19.529Z,82.70
2017-11-26T01:55:47.036Z,82.72
2017-11-26T01:58:14.499Z,82.74
2017-11-26T02:06:54.242Z,82.99
2017-11-26T02:09:21.734Z,83.10
2017-11-26T02:11:49.226Z,83.20
2017-11-26T02:14:16.692Z,83.25
2017-11-26T02:16:44.210Z,83.34
2017-11-26T02:19:11.870Z,83.26
2017-11-26T02:21:39.323Z,83.17
2017-11-26T02:24:06.833Z,83.36
2017-11-26T02:26:34.300Z,83.16
2017-11-26T02:29:01.789Z,83.21
2017-11-26T02:31:41.101Z,83.19
2017-11-26T02:34:20.430Z,83.47
2017-11-26T02:36:47.891Z,83.33
2017-11-26T02:39:15.362Z,83.51
2017-11-26T02:41:42.955Z,83.36
2017-11-26T02:44:10.455Z,83.25
2017-11-26T02:46:37.927Z,82.97
2017-11-26T02:49:05.529Z,83.26
2017-11-26T02:51:32.991Z,83.12
2017-11-26T02:54:00.492Z,83.22
2017-11-26T02:56:28.006Z,83.24
2017-11-26T02:58:55.567Z,83.36
2017-11-26T03:01:23.064Z,83.23
2017-11-26T03:03:50.579Z,83.29
2017-11-26T03:06:18.073Z,83.50
2017-11-26T03:08:45.628Z,83.65
2017-11-26T03:11:13.289Z,83.67
2017-11-26T03:13:40.854Z,83.54
2017-11-26T03:16:08.416Z,83.86
2017-11-26T03:18:35.889Z,83.83
2017-11-26T03:21:03.341Z,83.79
2017-11-26T03:23:30.802Z,83.54
2017-11-26T03:25:58.743Z,83.49
2017-11-26T03:28:26.300Z,83.67
2017-11-26T03:30:53.763Z,83.77
2017-11-26T03:33:21.248Z,83.64
2017-11-26T03:35:48.761Z,83.73
2017-11-26T03:38:16.292Z,83.66
2017-11-26T03:40:43.795Z,83.75
2017-11-26T03:46:04.674Z,83.65
2017-11-26T03:48:32.230Z,84.05
2017-11-26T03:51:00.351Z,84.30
2017-11-26T03:53:27.859Z,84.28
2017-11-26T03:55:55.379Z,84.32
2017-11-26T03:58:22.954Z,84.34
2017-11-26T04:00:50.546Z,84.41
2017-11-26T04:03:18.048Z,84.33
2017-11-26T04:05:45.600Z,84.28
2017-11-26T04:08:13.082Z,84.28
2017-11-26T04:10:40.550Z,84.39
2017-11-26T04:13:08.082Z,84.60
2017-11-26T04:15:35.592Z,84.58
2017-11-26T04:18:03.159Z,84.73
2017-11-26T04:20:30.622Z,84.85
2017-11-26T04:22:58.069Z,84.83
2017-11-26T04:25:25.593Z,84.74
2017-11-26T04:27:53.097Z,84.74
2017-11-26T04:30:20.588Z,84.87
2017-11-26T04:32:48.078Z,84.81
2017-11-26T04:35:15.607Z,84.72
2017-11-26T04:37:43.104Z,84.83
2017-11-26T04:40:10.550Z,84.66
2017-11-26T04:42:38.038Z,84.63
2017-11-26T04:45:05.587Z,84.66
2017-11-26T04:47:33.444Z,84.54
2017-11-26T04:50:00.975Z,84.27
2017-11-26T04:52:28.421Z,84.23
2017-11-26T04:54:56.414Z,84.22
2017-11-26T04:57:23.896Z,83.71
2017-11-26T04:59:51.452Z,83.78
2017-11-26T05:02:18.967Z,83.59
2017-11-26T05:04:46.522Z,83.48
2017-11-26T05:07:14.185Z,83.21
2017-11-26T05:09:41.669Z,82.84
2017-11-26T05:12:09.171Z,82.97
2017-11-26T05:14:46.357Z,83.37
2017-11-26T05:17:13.917Z,82.82
2017-11-26T05:19:41.357Z,82.62
2017-11-26T05:22:08.974Z,82.38
2017-11-26T05:24:36.459Z,82.45
2017-11-26T05:27:03.980Z,82.41
2017-11-26T05:29:31.495Z,82.21
2017-11-26T05:31:59.048Z,82.35
2017-11-26T05:34:26.621Z,82.29
2017-11-26T05:36:54.134Z,82.51
2017-11-26T05:39:21.616Z,82.19
2017-11-26T05:41:49.114Z,82.17
2017-11-26T05:44:16.769Z,81.99
2017-11-26T05:46:44.264Z,81.60
2017-11-26T05:49:11.833Z,81.31
2017-11-26T05:51:39.372Z,81.01
2017-11-26T05:54:06.907Z,80.84
2017-11-26T05:56:34.433Z,80.86
2017-11-26T05:59:01.913Z,80.79
2017-11-26T06:01:29.490Z,80.97
2017-11-26T06:03:57.107Z,80.83
2017-11-26T06:06:24.540Z,80.65
2017-11-26T06:08:52.110Z,80.93
2017-11-26T06:11:19.669Z,81.00
2017-11-26T06:13:47.583Z,80.99
2017-11-26T06:16:15.133Z,81.02
2017-11-26T06:18:42.642Z,81.13
2017-11-26T06:21:10.101Z,81.14
2017-11-26T06:23:37.578Z,81.20
2017-11-26T06:26:05.102Z,81.18
2017-11-26T06:28:32.726Z,81.25
2017-11-26T06:31:00.204Z,81.09
2017-11-26T06:33:27.938Z,80.98
2017-11-26T06:35:55.467Z,80.91
2017-11-26T06:38:22.987Z,80.90
2017-11-26T06:40:51.345Z,80.67
2017-11-26T06:43:42.554Z,80.67
2017-11-26T06:46:10.086Z,80.71
2017-11-26T06:48:37.568Z,80.82
2017-11-26T06:51:05.067Z,80.93
2017-11-26T06:53:32.625Z,80.64
2017-11-26T06:56:00.216Z,80.67
2017-11-26T06:58:27.746Z,80.77
2017-11-26T07:00:55.205Z,80.85
2017-11-26T07:03:22.671Z,80.75
2017-11-26T07:05:50.180Z,80.91
2017-11-26T07:08:17.670Z,80.79
2017-11-26T07:10:45.143Z,80.57
2017-11-26T07:13:12.647Z,80.83
2017-11-26T07:15:40.154Z,80.71
2017-11-26T07:18:07.730Z,80.73
2017-11-26T07:20:35.228Z,80.67
2017-11-26T07:23:02.732Z,80.64
2017-11-26T07:25:30.247Z,80.51
2017-11-26T07:27:57.724Z,80.65
2017-11-26T07:30:25.236Z,81.01
2017-11-26T07:32:52.806Z,80.60
2017-11-26T07:35:20.268Z,80.48
2017-11-26T07:37:47.789Z,80.49
2017-11-26T07:40:15.349Z,80.49
2017-11-26T07:42:42.815Z,80.32
2017-11-26T07:45:10.302Z,80.43
2017-11-26T07:47:38.027Z,80.46
2017-11-26T07:50:05.525Z,80.69
2017-11-26T07:52:33.003Z,80.36
2017-11-26T07:55:00.494Z,80.29
2017-11-26T07:57:28.025Z,79.95
2017-11-26T07:59:55.639Z,79.57
2017-11-26T08:02:23.134Z,79.60
2017-11-26T08:04:52.263Z,79.31
2017-11-26T08:07:19.934Z,78.94
2017-11-26T08:09:47.426Z,78.92
2017-11-26T08:12:15.098Z,78.20
2017-11-26T08:14:42.618Z,78.21
2017-11-26T08:17:10.213Z,78.11
2017-11-26T08:19:37.731Z,77.85
2017-11-26T08:22:05.448Z,78.17
2017-11-26T08:24:33.034Z,78.03
2017-11-26T08:27:00.609Z,77.77
2017-11-26T08:29:29.082Z,77.82
2017-11-26T08:31:56.811Z,78.00
2017-11-26T08:34:25.231Z,78.30
2017-11-26T08:36:52.861Z,78.08
2017-11-26T08:39:20.505Z,78.13
2017-11-26T08:41:47.988Z,77.87
2017-11-26T08:44:15.443Z,77.85
2017-11-26T08:46:42.938Z,77.97
2017-11-26T08:49:10.431Z,77.73
2017-11-26T08:51:37.946Z,77.52
2017-11-26T08:54:05.539Z,77.13
2017-11-26T08:56:33.043Z,77.50
2017-11-26T08:59:00.621Z,77.47
2017-11-26T09:01:28.257Z,77.29
2017-11-26T09:03:55.788Z,77.36
2017-11-26T09:06:39.033Z,77.03
2017-11-26T09:09:06.494Z,77.08
2017-11-26T09:11:33.958Z,77.17
2017-11-26T09:14:01.927Z,76.28
2017-11-26T09:16:29.465Z,76.07
2017-11-26T09:18:57.038Z,75.96
2017-11-26T09:21:24.528Z,75.14
2017-11-26T09:23:52.096Z,75.32
2017-11-26T09:26:19.619Z,74.62
2017-11-26T09:28:47.145Z,74.53
2017-11-26T09:31:14.659Z,74.63
2017-11-26T09:33:42.131Z,74.97
2017-11-26T09:36:09.635Z,75.22
2017-11-26T09:38:37.281Z,75.19
2017-11-26T09:41:04.906Z,75.12
2017-11-26T09:43:32.517Z,75.29
2017-11-26T09:46:00.034Z,75.33
2017-11-26T09:48:27.761Z,74.60
2017-11-26T09:50:55.267Z,73.88
2017-11-26T09:53:22.750Z,73.25
2017-11-26T09:55:50.350Z,72.96
2017-11-26T09:58:18.142Z,73.53
2017-11-26T10:00:45.841Z,73.35
2017-11-26T10:03:13.351Z,73.06
2017-11-26T10:05:41.117Z,72.90
2017-11-26T10:08:08.724Z,72.89
2017-11-26T10:10:37.190Z,72.41
2017-11-26T10:13:05.022Z,72.74
2017-11-26T10:15:32.659Z,72.74
2017-11-26T10:18:00.507Z,72.54
2017-11-26T10:20:28.170Z,71.67
2017-11-26T10:22:55.675Z,71.46
2017-11-26T10:25:23.270Z,71.37
2017-11-26T10:27:50.821Z,70.97
2017-11-26T10:30:18.351Z,70.69
2017-11-26T10:32:46.149Z,70.19
2017-11-26T10:35:14.782Z,69.70
2017-11-26T10:37:42.493Z,69.71
2017-11-26T10:40:10.206Z,69.24
2017-11-26T10:42:37.733Z,69.40
2017-11-26T10:45:05.408Z,68.83
2017-11-26T10:47:37.302Z,68.80
2017-11-26T10:50:05.106Z,68.66
2017-11-26T10:52:32.966Z,68.35
2017-11-26T10:55:00.783Z,68.09
2017-11-26T10:57:29.599Z,67.78
2017-11-26T10:59:59.239Z,68.40
2017-11-26T11:02:31.316Z,68.34
2017-11-26T11:04:59.021Z,67.61
2017-11-26T11:07:26.643Z,67.95
2017-11-26T11:09:54.502Z,67.81
2017-11-26T11:12:23.022Z,67.69
2017-11-26T11:17:43.843Z,66.07
2017-11-26T11:20:12.311Z,65.50
2017-11-26T11:27:46.932Z,66.59
2017-11-26T11:32:47.303Z,66.82
2017-11-26T11:37:46.863Z,67.15
2017-11-26T11:40:14.542Z,67.14
2017-11-26T11:42:42.247Z,67.12
2017-11-26T11:45:09.985Z,67.02
2017-11-26T11:47:38.409Z,66.81
2017-11-26T11:50:06.064Z,67.02
2017-11-26T11:52:35.394Z,67.33
2017-11-26T11:55:02.904Z,67.72
2017-11-26T11:57:30.369Z,67.44
2017-11-26T12:00:01.509Z,67.16
2017-11-26T12:02:29.149Z,67.59
2017-11-26T12:04:57.948Z,67.65
2017-11-26T12:07:25.499Z,67.33
2017-11-26T12:09:53.072Z,67.51
2017-11-26T12:12:20.600Z,67.88
2017-11-26T12:14:53.061Z,67.47
2017-11-26T12:17:20.528Z,67.25
2017-11-26T12:19:49.558Z,67.25
2017-11-26T12:22:17.365Z,66.91
2017-11-26T12:24:44.987Z,66.53
2017-11-26T12:27:12.669Z,65.90
2017-11-26T12:29:40.210Z,65.66
2017-11-26T12:32:08.683Z,65.55
2017-11-26T12:34:36.298Z,65.41
2017-11-26T12:37:04.017Z,65.62
2017-11-26T12:39:31.520Z,65.02
2017-11-26T12:41:59.131Z,64.85
2017-11-26T12:44:50.465Z,65.25
2017-11-26T12:47:17.977Z,65.40
2017-11-26T12:49:45.486Z,65.74
2017-11-26T12:52:12.999Z,65.93
2017-11-26T12:54:40.568Z,66.56
2017-11-26T12:57:08.267Z,66.42
2017-11-26T12:59:35.870Z,65.99
2017-11-26T13:02:03.323Z,67.00
2017-11-26T13:04:30.873Z,67.11
2017-11-26T13:06:58.456Z,67.08
2017-11-26T13:09:26.067Z,67.34
2017-11-26T13:11:53.682Z,66.84
2017-11-26T13:14:30.861Z,66.55
2017-11-26T13:16:58.587Z,66.23
2017-11-26T13:19:26.172Z,66.79
2017-11-26T13:21:53.843Z,66.54
2017-11-26T13:24:45.170Z,67.19
2017-11-26T13:27:12.727Z,67.68
2017-11-26T13:29:40.312Z,67.39
2017-11-26T13:32:08.063Z,68.30
2017-11-26T13:34:35.641Z,68.40
2017-11-26T13:37:03.329Z,68.29
2017-11-26T13:39:31.927Z,68.56
2017-11-26T13:41:59.502Z,68.14
2017-11-26T13:44:27.083Z,68.44
2017-11-26T13:46:54.620Z,68.13
2017-11-26T13:49:22.836Z,68.52
2017-11-26T13:51:50.778Z,68.41
2017-11-26T13:54:18.933Z,68.83
2017-11-26T13:56:46.519Z,68.74
2017-11-26T13:59:14.087Z,68.88
2017-11-26T14:01:41.728Z,69.41
2017-11-26T14:04:09.537Z,68.47
2017-11-26T14:06:37.347Z,67.98
2017-11-26T14:09:05.139Z,68.59
2017-11-26T14:11:32.776Z,68.85
2017-11-26T14:14:00.376Z,68.76
2017-11-26T14:16:27.991Z,69.06
2017-11-26T14:18:55.580Z,68.54
2017-11-26T14:21:23.202Z,68.83
2017-11-26T14:23:50.706Z,68.39
2017-11-26T14:26:18.295Z,68.73
2017-11-26T14:28:45.841Z,68.98
2017-11-26T14:31:13.648Z,68.46
2017-11-26T14:33:41.224Z,68.88
2017-11-26T14:36:08.742Z,68.76
2017-11-26T14:38:36.274Z,68.99
2017-11-26T14:41:03.801Z,68.81
2017-11-26T14:43:31.378Z,69.67
2017-11-26T14:45:59.006Z,69.74
2017-11-26T14:48:26.775Z,69.21
2017-11-26T14:50:54.349Z,69.74
2017-11-26T14:53:31.574Z,70.18
2017-11-26T14:55:59.137Z,70.28
2017-11-26T14:58:26.784Z,69.94
2017-11-26T15:00:54.423Z,70.27
2017-11-26T15:06:29.367Z,70.87
2017-11-26T15:08:56.863Z,70.64
2017-11-26T15:11:24.396Z,70.92
2017-11-26T15:16:45.434Z,70.62
2017-11-26T15:19:13.060Z,70.57
2017-11-26T15:21:40.549Z,70.59
2017-11-26T15:24:08.106Z,71.11
2017-11-26T15:26:38.821Z,71.04
2017-11-26T15:29:07.117Z,71.20
2017-11-26T15:31:34.674Z,71.66
2017-11-26T15:34:02.262Z,71.18
2017-11-26T15:36:29.901Z,71.20
2017-11-26T15:38:57.567Z,71.55
2017-11-26T15:41:25.087Z,71.50
2017-11-26T15:43:52.683Z,71.42
2017-11-26T15:46:20.155Z,71.41
2017-11-26T15:48:47.689Z,71.47
2017-11-26T15:51:15.193Z,71.32
2017-11-26T15:53:42.716Z,71.33
2017-11-26T15:56:10.253Z,71.23
2017-11-26T15:58:38.007Z,71.15
2017-11-26T16:01:05.709Z,71.33
2017-11-26T16:03:33.549Z,71.29
2017-11-26T16:06:01.046Z,71.41
2017-11-26T16:08:28.666Z,71.20
2017-11-26T16:10:56.321Z,71.70
2017-11-26T16:13:23.903Z,72.08
2017-11-26T16:15:51.472Z,70.85
2017-11-26T16:18:19.208Z,70.65
2017-11-26T16:20:47.038Z,70.82
2017-11-26T16:23:14.554Z,70.84
2017-11-26T16:25:42.050Z,70.81
2017-11-26T16:28:09.836Z,71.01
2017-11-26T16:30:37.372Z,70.95
2017-11-26T16:33:05.248Z,71.26
2017-11-26T16:35:42.456Z,71.48
2017-11-26T16:38:10.441Z,71.79
2017-11-26T16:40:38.229Z,72.02
2017-11-26T16:43:06.439Z,72.32
2017-11-26T16:45:34.077Z,72.11
2017-11-26T16:48:06.080Z,71.76
2017-11-26T16:50:33.699Z,71.99
2017-11-26T16:53:01.643Z,72.25
2017-11-26T16:55:29.173Z,72.39
2017-11-26T16:57:56.712Z,72.33
2017-11-26T17:00:26.253Z,72.37
2017-11-26T17:02:55.407Z,72.47
2017-11-26T17:05:32.693Z,72.27
2017-11-26T17:08:00.825Z,72.14
2017-11-26T17:10:28.434Z,72.42
2017-11-26T17:12:56.430Z,72.34
2017-11-26T17:15:29.087Z,72.62
2017-11-26T17:17:56.588Z,72.24
2017-11-26T17:20:24.280Z,72.12
2017-11-26T17:22:51.856Z,72.17
2017-11-26T17:25:19.464Z,72.33
2017-11-26T17:27:47.053Z,72.74
2017-11-26T17:30:14.761Z,72.92
2017-11-26T17:32:42.547Z,72.35
2017-11-26T17:35:10.282Z,72.13
2017-11-26T17:37:40.327Z,71.99
2017-11-26T17:40:08.075Z,72.07
2017-11-26T17:42:35.582Z,71.66
2017-11-26T17:45:27.351Z,71.91
2017-11-26T17:47:54.899Z,71.58
2017-11-26T17:50:22.484Z,71.59
2017-11-26T17:52:50.286Z,71.42
2017-11-26T17:55:17.838Z,71.41
2017-11-26T17:57:45.641Z,71.21
2017-11-26T18:00:13.409Z,71.45
2017-11-26T18:02:40.898Z,71.44
2017-11-26T18:05:08.405Z,71.29
2017-11-26T18:07:36.155Z,71.44
2017-11-26T18:10:03.733Z,71.62
2017-11-26T18:12:31.275Z,71.82
2017-11-26T18:15:04.040Z,71.83
2017-11-26T18:17:31.552Z,71.73
2017-11-26T18:19:59.048Z,71.95
2017-11-26T18:22:26.655Z,71.60
2017-11-26T18:27:47.027Z,71.62
2017-11-26T18:30:14.859Z,71.51
2017-11-26T18:32:43.296Z,71.80
2017-11-26T18:35:11.008Z,71.62
2017-11-26T18:37:38.680Z,71.56
2017-11-26T18:40:06.247Z,71.80
2017-11-26T18:42:33.965Z,71.56
2017-11-26T18:45:21.009Z,71.87
2017-11-26T18:47:48.994Z,72.12
2017-11-26T18:50:16.577Z,71.90
2017-11-26T18:52:44.367Z,72.10
2017-11-26T18:55:12.809Z,71.90
2017-11-26T18:57:41.282Z,71.91
2017-11-26T19:00:09.140Z,72.06
2017-11-26T19:02:36.971Z,72.09
2017-11-26T19:05:04.577Z,72.00
2017-11-26T19:07:32.950Z,71.81
2017-11-26T19:10:00.706Z,71.96
2017-11-26T19:12:29.341Z,71.88
2017-11-26T19:14:57.194Z,71.86
2017-11-26T19:17:26.920Z,71.82
2017-11-26T19:19:55.700Z,71.94
2017-11-26T19:22:24.672Z,71.99
2017-11-26T19:24:54.897Z,71.78
2017-11-26T19:30:02.230Z,72.17
2017-11-26T19:32:30.095Z,71.98
2017-11-26T19:35:08.506Z,71.86
2017-11-26T19:37:40.560Z,72.67
2017-11-26T19:40:08.820Z,72.33
2017-11-26T19:42:37.650Z,72.43
2017-11-26T19:45:05.226Z,72.33
2017-11-26T19:47:35.317Z,72.51
2017-11-26T19:50:02.997Z,72.55
2017-11-26T19:52:30.605Z,72.71
2017-11-26T19:54:58.200Z,72.49
2017-11-26T19:57:25.818Z,72.50
2017-11-26T19:59:53.425Z,72.64
2017-11-26T20:02:21.127Z,72.66
2017-11-26T20:04:48.813Z,73.11
2017-11-26T20:07:16.768Z,72.64
2017-11-26T20:09:44.449Z,72.82
2017-11-26T20:12:12.068Z,72.54
2017-11-26T20:14:40.449Z,72.67
2017-11-26T20:17:08.043Z,72.72
2017-11-26T20:19:35.633Z,72.56
2017-11-26T20:22:03.100Z,72.66
2017-11-26T20:24:30.938Z,72.67
2017-11-26T20:26:58.478Z,72.80
2017-11-26T20:29:25.971Z,73.22
2017-11-26T20:31:53.701Z,72.82
2017-11-26T20:34:21.975Z,72.61
2017-11-26T20:36:50.328Z,72.63
2017-11-26T20:39:17.960Z,72.68
2017-11-26T20:41:45.510Z,72.52
2017-11-26T20:44:13.099Z,72.52
2017-11-26T20:46:40.692Z,72.47
2017-11-26T20:49:08.192Z,72.42
2017-11-26T20:51:35.817Z,72.33
2017-11-26T20:54:04.297Z,72.63
2017-11-26T20:56:31.902Z,72.27
2017-11-26T20:58:59.469Z,72.37
2017-11-26T21:01:27.200Z,72.49
2017-11-26T21:03:54.831Z,72.42
2017-11-26T21:06:23.214Z,72.48
2017-11-26T21:08:52.829Z,72.81
2017-11-26T21:11:20.481Z,72.43
2017-11-26T21:13:47.973Z,72.50
2017-11-26T21:16:15.698Z,72.54
2017-11-26T21:18:44.363Z,72.30
2017-11-26T21:21:12.123Z,72.20
2017-11-26T21:26:32.524Z,71.80
2017-11-26T21:29:00.148Z,72.12
2017-11-26T21:31:29.665Z,72.45
2017-11-26T21:36:54.787Z,72.58
2017-11-26T21:39:23.285Z,72.16
2017-11-26T21:41:50.858Z,72.15
2017-11-26T21:44:18.528Z,72.66
2017-11-26T21:46:48.029Z,72.61
2017-11-26T21:49:16.365Z,74.02
2017-11-26T21:51:44.061Z,73.48
2017-11-26T21:54:11.667Z,75.50
2017-11-26T21:56:39.190Z,70.87
2017-11-26T21:59:06.673Z,70.71
2017-11-26T22:01:34.314Z,70.47
2017-11-26T22:04:01.909Z,71.13
2017-11-26T22:06:30.204Z,72.08
2017-11-26T22:08:57.850Z,72.30
2017-11-26T22:11:25.399Z,72.64
2017-11-26T22:13:52.985Z,72.94
2017-11-26T22:16:20.799Z,72.75
2017-11-26T22:18:48.817Z,72.85
2017-11-26T22:21:16.311Z,72.68
2017-11-26T22:23:43.775Z,72.96
2017-11-26T22:26:11.371Z,72.78
2017-11-26T22:28:38.868Z,72.75
2017-11-26T22:31:06.537Z,72.86
2017-11-26T22:33:39.077Z,73.19
2017-11-26T22:36:06.670Z,75.37
2017-11-26T22:38:34.290Z,74.27
2017-11-26T22:41:01.983Z,73.10
2017-11-26T22:43:29.878Z,72.49
2017-11-26T22:45:57.626Z,71.79
2017-11-26T22:48:25.227Z,71.58
2017-11-26T22:50:52.820Z,70.80
2017-11-26T22:53:20.331Z,70.85
2017-11-26T22:55:47.946Z,70.90
2017-11-26T22:58:15.451Z,70.61
2017-11-26T23:00:43.009Z,70.34
2017-11-26T23:03:10.558Z,70.32
2017-11-26T23:05:38.133Z,70.09
2017-11-26T23:08:05.763Z,69.67
2017-11-26T23:10:33.612Z,69.85
2017-11-26T23:13:01.476Z,70.07
2017-11-26T23:15:29.254Z,69.74
2017-11-26T23:17:56.865Z,69.73
2017-11-26T23:20:24.797Z,70.04
2017-11-26T23:22:52.342Z,70.07
2017-11-26T23:25:20.018Z,70.18
2017-11-26T23:27:47.550Z,70.19
2017-11-26T23:30:15.328Z,70.23
2017-11-26T23:32:46.493Z,70.18
2017-11-26T23:35:14.071Z,70.35
2017-11-26T23:37:43.796Z,70.21
2017-11-26T23:40:11.411Z,70.41
2017-11-26T23:42:39.243Z,70.51
2017-11-26T23:45:21.165Z,70.24
2017-11-26T23:47:48.805Z,70.35
2017-11-26T23:50:16.354Z,70.35
2017-11-26T23:52:43.941Z,70.23
2017-11-26T23:55:16.501Z,70.45
2017-11-26T23:57:44.149Z,70.46
